Time;durP1;ratioP1;P1;durP2;ratioP2;P2;SDS_P1;SDS_P2;PMS_P1;PMS_P2;Temp;Humidity;BMP_temperature;BMP_pressure;BME280_temperature;BME280_humidity;BME280_pressure;Samples;Min_cycle;Max_cycle;Signal;HPM_P1;HPM_P2
2023/08/10 00:03:16;;;;;;;9.60;4.40;;;;;;;10.72;84.61;100610.37;128902;1273;115374;-64
2023/08/10 00:06:45;;;;;;;5.00;4.30;;;;;;;10.68;84.82;100609.27;127801;1276;115186;-67
2023/08/10 00:10:18;;;;;;;7.40;4.80;;;;;;;10.65;84.73;100608.91;127845;1282;114962;-64
2023/08/10 00:13:58;;;;;;;7.10;4.90;;;;;;;10.61;84.78;100606.00;128129;1290;114865;-65
2023/08/10 00:17:18;;;;;;;9.90;4.80;;;;;;;10.58;85.03;100606.88;128255;1292;128970;-65
2023/08/10 00:21:10;;;;;;;;;;;;;;;;;;;;;
2023/08/10 00:24:42;;;;;;;6.70;5.40;;;;;;;10.55;85.02;100617.35;128590;1270;114932;-66
2023/08/10 00:28:18;;;;;;;10.30;5.30;;;;;;;10.54;85.50;100617.04;128366;1270;115720;-65
2023/08/10 00:32:12;;;;;;;6.90;5.10;;;;;;;10.54;85.40;100618.12;128382;1276;114843;-65
2023/08/10 00:36:08;;;;;;;4.80;4.30;;;;;;;10.54;85.48;100615.62;127612;1296;127761;-65
2023/08/10 00:39:46;;;;;;;;;;;;;;;;;;;;;
2023/08/10 00:43:42;;;;;;;9.40;6.10;;;;;;;10.54;85.83;100616.52;126972;1289;114978;-67
2023/08/10 00:47:11;;;;;;;;;;;;;;;;;;;;;
2023/08/10 00:51:04;;;;;;;;;;;;;;;;;;;;;
2023/08/10 00:55:10;;;;;;;11.60;6.20;;;;;;;10.58;86.34;100628.11;127106;1280;128999;-65
2023/08/10 00:59:27;;;;;;;9.40;7.00;;;;;;;10.60;86.38;100624.80;126797;1302;115310;-65
2023/08/10 01:02:49;;;;;;;11.00;5.30;;;;;;;10.61;86.56;100627.42;126147;1302;114807;-64
2023/08/10 01:06:44;;;;;;;6.60;5.70;;;;;;;10.61;86.39;100628.50;126354;1292;114806;-64
2023/08/10 01:10:42;;;;;;;;;;;;;;;;;;;;;
2023/08/10 01:14:43;;;;;;;7.70;5.50;;;;;;;10.62;86.80;100624.02;126328;1307;128726;-64
2023/08/10 01:18:20;;;;;;;7.60;5.90;;;;;;;10.60;86.82;100629.27;127324;1285;115477;-65
2023/08/10 01:22:19;;;;;;;;;;;;;;;;;;;;;
2023/08/10 01:26:06;;;;;;;8.20;5.40;;;;;;;10.57;86.60;100626.05;127579;1279;114925;-65
2023/08/10 01:29:53;;;;;;;;;;;;;;;;;;;;;
2023/08/10 01:34:06;;;;;;;11.20;5.00;;;;;;;10.48;86.49;100635.85;127348;1299;129222;-66
2023/08/10 01:37:50;;;;;;;7.60;5.70;;;;;;;10.45;86.51;100637.80;127495;1288;115438;-64
2023/08/10 01:41:48;;;;;;;5.80;5.20;;;;;;;10.40;86.49;100639.96;127126;1303;114948;-65
2023/08/10 01:44:57;;;;;;;11.00;6.40;;;;;;;10.36;86.32;100640.27;126890;1291;114789;-64
2023/08/10 01:48:59;;;;;;;;;;;;;;;;;;;;;
2023/08/10 01:53:12;;;;;;;10.70;6.00;;;;;;;10.29;86.56;100651.47;126797;1291;128131;-65
2023/08/10 01:56:32;;;;;;;15.60;6.40;;;;;;;10.27;86.69;100656.04;125778;1316;115286;-66
2023/08/10 02:00:10;;;;;;;7.70;5.50;;;;;;;10.25;86.70;100662.39;126131;1297;114831;-65
2023/08/10 02:04:01;;;;;;;8.40;5.70;;;;;;;10.22;86.55;100661.59;126206;1298;114835;-65
2023/08/10 02:07:48;;;;;;;;;;;;;;;;;;;;;
2023/08/10 02:11:34;;;;;;;;;;;;;;;;;;;;;
2023/08/10 02:15:37;;;;;;;10.30;6.70;;;;;;;10.09;86.63;100665.34;125281;1315;116791;-65
2023/08/10 02:19:27;;;;;;;11.20;8.00;;;;;;;10.03;86.44;100668.25;126242;1287;114937;-65
2023/08/10 02:23:12;;;;;;;10.50;7.30;;;;;;;9.99;86.79;100664.52;126772;1282;114777;-64
2023/08/10 02:27:09;;;;;;;13.60;9.10;;;;;;;9.96;86.94;100661.60;126765;1286;114862;-65
2023/08/10 02:31:14;;;;;;;13.40;8.60;;;;;;;9.94;87.04;100659.02;127500;1283;129842;-65
2023/08/10 02:35:16;;;;;;;12.00;8.40;;;;;;;9.92;87.11;100661.06;127491;1285;115418;-64
2023/08/10 02:38:59;;;;;;;16.50;9.50;;;;;;;9.91;87.14;100663.25;126376;1289;114933;-66
2023/08/10 02:42:45;;;;;;;;;;;;;;;;;;;;;
2023/08/10 02:46:33;;;;;;;;;;;;;;;;;;;;;
2023/08/10 02:50:28;;;;;;;11.90;8.60;;;;;;;9.91;87.19;100668.05;126127;1294;128678;-65
2023/08/10 02:54:13;;;;;;;12.60;8.70;;;;;;;9.91;87.52;100661.98;125640;1300;114995;-65
2023/08/10 02:58:13;;;;;;;;;;;;;;;;;;;;;
2023/08/10 03:02:07;;;;;;;;;;;;;;;;;;;;;
2023/08/10 03:06:20;;;;;;;;;;;;;;;;;;;;;
2023/08/10 03:10:24;;;;;;;11.70;8.30;;;;;;;9.90;87.60;100678.09;128944;1289;128711;-65
2023/08/10 03:14:18;;;;;;;;;;;;;;;;;;;;;
2023/08/10 03:18:23;;;;;;;11.60;9.10;;;;;;;9.86;87.75;100682.16;125271;1278;5440454;-66
2023/08/10 03:26:31;;;;;;;16.40;9.40;;;;;;;9.79;87.57;100690.45;125860;1301;114972;-65
2023/08/10 03:30:17;;;;;;;15.50;8.90;;;;;;;9.76;87.18;100689.19;125332;1307;129845;-67
2023/08/10 03:33:53;;;;;;;;;;;;;;;;;;;;;
2023/08/10 03:37:37;;;;;;;13.20;8.30;;;;;;;9.69;87.58;100701.39;124364;1331;114930;-65
2023/08/10 03:45:50;;;;;;;12.90;7.80;;;;;;;9.65;87.40;100712.95;126325;1294;635095;-65
2023/08/10 03:49:53;;;;;;;12.60;8.90;;;;;;;9.63;87.62;100717.48;128375;1284;127770;-65
2023/08/10 03:53:53;;;;;;;10.40;7.80;;;;;;;9.62;87.85;100720.39;127309;1284;115360;-65
2023/08/10 03:57:51;;;;;;;15.20;7.40;;;;;;;9.61;87.81;100722.55;123390;1288;5468350;-66
2023/08/10 04:01:58;;;;;;;10.90;7.20;;;;;;;9.61;87.80;100728.45;127076;1308;114899;-65
2023/08/10 04:05:45;;;;;;;11.90;7.90;;;;;;;9.62;87.83;100736.98;125971;1302;114822;-65
2023/08/10 04:09:37;;;;;;;11.50;7.80;;;;;;;9.64;87.96;100737.97;125513;1318;114975;-65
2023/08/10 04:13:23;;;;;;;;;;;;;;;;;;;;;
2023/08/10 04:17:18;;;;;;;11.30;8.30;;;;;;;9.69;87.97;100732.42;124343;1330;115571;-65
2023/08/10 04:21:11;;;;;;;;;;;;;;;;;;;;;
2023/08/10 04:25:28;;;;;;;15.00;9.10;;;;;;;9.81;88.37;100736.24;126580;1295;635237;-65
2023/08/10 04:29:08;;;;;;;;;;;;;;;;;;;;;
2023/08/10 04:33:15;;;;;;;11.90;8.30;;;;;;;9.91;88.70;100744.77;128059;1278;114975;-65
2023/08/10 04:36:45;;;;;;;;;;;;;;;;;;;;;
2023/08/10 04:40:49;;;;;;;9.60;8.30;;;;;;;10.04;88.83;100744.95;123586;1290;114765;-66
2023/08/10 04:44:50;;;;;;;;;;;;;;;;;;;;;
2023/08/10 04:48:52;;;;;;;;;;;;;;;;;;;;;
2023/08/10 04:52:50;;;;;;;;;;;;;;;;;;;;;
2023/08/10 04:56:44;;;;;;;;;;;;;;;;;;;;;
2023/08/10 05:00:34;;;;;;;;;;;;;;;;;;;;;
2023/08/10 05:04:08;;;;;;;17.60;10.60;;;;;;;11.14;91.66;100752.50;124905;1312;114806;-64
2023/08/10 05:08:08;;;;;;;20.10;10.90;;;;;;;11.78;92.06;100748.53;125158;1325;114806;-66
2023/08/10 05:12:05;;;;;;;17.00;9.40;;;;;;;12.39;91.59;100746.70;124877;1313;129040;-65
2023/08/10 05:16:07;;;;;;;;;;;;;;;;;;;;;
2023/08/10 05:20:07;;;;;;;;;;;;;;;;;;;;;
2023/08/10 05:24:20;;;;;;;20.30;7.50;;;;;;;13.82;88.99;100749.23;126423;1295;636133;-65
2023/08/10 05:28:18;;;;;;;11.00;5.50;;;;;;;14.13;88.17;100755.95;129093;1275;127731;-65
2023/08/10 05:32:21;;;;;;;12.00;5.90;;;;;;;14.44;87.67;100759.04;127929;1290;116317;-65
2023/08/10 05:36:14;;;;;;;;;;;;;;;;;;;;;
2023/08/10 05:40:10;;;;;;;12.90;6.10;;;;;;;15.00;86.66;100753.05;126111;1309;114948;-65
2023/08/10 05:43:59;;;;;;;;;;;;;;;;;;;;;
2023/08/10 05:47:37;;;;;;;;;;;;;;;;;;;;;
2023/08/10 05:51:16;;;;;;;6.50;4.00;;;;;;;15.63;84.86;100749.91;124735;1308;115336;-67
2023/08/10 05:55:11;;;;;;;6.70;4.10;;;;;;;15.82;84.53;100749.04;124954;1312;114932;-65
2023/08/10 05:59:03;;;;;;;7.20;4.00;;;;;;;16.02;83.97;100755.03;124085;1314;114862;-65
2023/08/10 06:07:21;;;;;;;7.10;3.90;;;;;;;16.40;82.51;100764.40;126165;1303;636245;-66
2023/08/10 06:11:10;;;;;;;;;;;;;;;;;;;;;
2023/08/10 06:15:08;;;;;;;7.50;4.40;;;;;;;17.00;81.48;100759.48;129097;1273;114821;-65
2023/08/10 06:19:06;;;;;;;6.20;3.90;;;;;;;17.33;80.79;100768.05;126155;1281;5422101;-66
2023/08/10 06:22:49;;;;;;;;;;;;;;;;;;;;;
2023/08/10 06:26:28;;;;;;;10.20;3.80;;;;;;;18.11;79.23;100762.44;127149;1294;114948;-65
2023/08/10 06:34:40;;;;;;;5.80;3.70;;;;;;;19.29;77.05;100762.83;126558;1294;635844;-66
2023/08/10 06:38:25;;;;;;;;;;;;;;;;;;;;;
2023/08/10 06:42:01;;;;;;;8.70;3.50;;;;;;;20.44;75.70;100757.70;128127;1276;115898;-66
2023/08/10 06:45:38;;;;;;;;;;;;;;;20.95;74.53;100759.55;127936;1284;114842;-67
2023/08/10 06:49:19;;;;;;;;;;;;;;;;;;;;;
2023/08/10 06:52:45;;;;;;;5.40;2.60;;;;;;;21.80;71.77;100767.70;126857;1300;114957;-68
2023/08/10 06:56:30;;;;;;;;;;;;;;;;;;;;;
2023/08/10 07:00:24;;;;;;;;;;;;;;;;;;;;;
2023/08/10 07:04:11;;;;;;;5.50;2.30;;;;;;;22.62;67.57;100775.03;126569;1298;115214;-66
2023/08/10 07:07:39;;;;;;;3.90;2.40;;;;;;;22.83;66.99;100777.19;126667;1296;114881;-66
2023/08/10 07:11:21;;;;;;;;;;;;;;;;;;;;;
2023/08/10 07:15:38;;;;;;;5.60;2.40;;;;;;;23.27;64.82;100768.71;126447;1301;114888;-67
2023/08/10 07:19:22;;;;;;;;;;;;;;;;;;;;;
2023/08/10 07:23:09;;;;;;;5.90;2.10;;;;;;;23.87;63.61;100768.21;126038;1300;116491;-67
2023/08/10 07:26:56;;;;;;;;;;;;;;;;;;;;;
2023/08/10 07:30:37;;;;;;;;;;;;;;;;;;;;;
2023/08/10 07:34:32;;;;;;;2.70;1.70;;;;;;;25.31;60.83;100767.84;125746;1318;114874;-67
2023/08/10 07:38:14;;;;;;;3.10;1.70;;;;;;;25.73;59.34;100763.64;125531;1310;119349;-67
2023/08/10 07:41:56;;;;;;;5.50;1.70;;;;;;;26.17;58.60;100763.89;124911;1313;118132;-67
2023/08/10 07:49:38;;;;;;;6.40;2.30;;;;;;;27.08;55.91;100766.92;126310;1294;635725;-67
2023/08/10 07:53:26;;;;;;;5.30;2.10;;;;;;;27.41;55.14;100765.41;129363;1270;118971;-67
2023/08/10 07:57:18;;;;;;;7.00;2.50;;;;;;;27.72;53.51;100766.11;129135;1270;114856;-67
2023/08/10 08:00:39;;;;;;;;;;;;;;;;;;;;;
2023/08/10 08:04:34;;;;;;;;;;;;;;;;;;;;;
2023/08/10 08:08:35;;;;;;;3.60;2.20;;;;;;;28.51;51.01;100767.20;128174;1293;114850;-67
2023/08/10 08:12:18;;;;;;;5.30;2.10;;;;;;;28.69;50.33;100766.05;128340;1277;114906;-67
2023/08/10 08:16:00;;;;;;;;;;;;;;;;;;;;;
2023/08/10 08:19:44;;;;;;;;;;;;;;;;;;;;;
2023/08/10 08:23:48;;;;;;;3.60;1.90;;;;;;;29.15;47.76;100768.84;128157;1283;114945;-66
2023/08/10 08:27:27;;;;;;;2.00;1.50;;;;;;;29.23;47.22;100774.49;126964;1289;115012;-67
2023/08/10 08:31:12;;;;;;;;;;;;;;;;;;;;;
2023/08/10 08:34:58;;;;;;;1.80;1.20;;;;;;;29.64;45.63;100775.43;126364;1295;120889;-67
2023/08/10 08:38:47;;;;;;;2.00;1.50;;;;;;;29.64;44.84;100772.87;126284;1295;114997;-71
2023/08/10 08:42:48;;;;;;;;;;;;;;;;;;;;;
2023/08/10 08:46:36;;;;;;;4.10;1.70;;;;;;;29.47;43.42;100768.09;126521;1292;114915;-68
2023/08/10 08:50:12;;;;;;;3.70;1.40;;;;;;;29.60;43.21;100765.73;126621;1295;115092;-66
2023/08/10 08:53:56;;;;;;;4.80;1.90;;;;;;;29.71;43.10;100765.96;126220;1289;121256;-69
2023/08/10 08:57:49;;;;;;;3.20;1.40;;;;;;;29.75;42.44;100763.95;126131;1299;115227;-68
2023/08/10 09:01:23;;;;;;;3.60;1.60;;;;;;;29.54;41.42;100761.70;125701;1301;115033;-68
2023/08/10 09:05:02;;;;;;;;;;;;;;;;;;;;;
2023/08/10 09:08:39;;;;;;;4.80;1.40;;;;;;;29.10;41.25;100759.17;126033;1301;114935;-68
2023/08/10 09:12:41;;;;;;;4.90;1.40;;;;;;;28.88;40.59;100756.27;126325;1298;121059;-68
2023/08/10 09:16:45;;;;;;;4.70;1.90;;;;;;;28.53;40.30;100759.63;126470;1291;114961;-71
2023/08/10 09:20:32;;;;;;;4.20;1.40;;;;;;;28.29;40.58;100762.84;127151;1289;115439;-69
2023/08/10 09:23:58;;;;;;;;;;;;;;;;;;;;;
2023/08/10 09:27:52;;;;;;;;;;;;;;;;;;;;;
2023/08/10 09:31:54;;;;;;;5.30;1.80;;;;;;;28.13;39.82;100757.20;126916;1290;119095;-70
2023/08/10 09:35:36;;;;;;;3.90;1.60;;;;;;;27.95;39.59;100758.00;126257;1298;114894;-69
2023/08/10 09:39:36;;;;;;;;;;;;;;;;;;;;;
2023/08/10 09:43:22;;;;;;;3.10;1.40;;;;;;;27.44;39.04;100756.83;126114;1298;114923;-68
2023/08/10 09:47:24;;;;;;;2.70;1.40;;;;;;;27.24;39.19;100756.30;126267;1292;115080;-69
2023/08/10 09:50:52;;;;;;;3.50;1.30;;;;;;;27.05;39.37;100757.02;126043;1317;121216;-70
2023/08/10 09:54:47;;;;;;;5.00;1.50;;;;;;;26.90;39.03;100755.38;126058;1296;114848;-65
2023/08/10 09:58:37;;;;;;;2.20;1.30;;;;;;;26.60;38.21;100755.21;125772;1305;115364;-67
2023/08/10 10:02:24;;;;;;;2.40;1.20;;;;;;;26.25;38.31;100752.96;125206;1310;114904;-66
2023/08/10 10:05:47;;;;;;;;;;;;;;;;;;;;;
2023/08/10 10:09:39;;;;;;;2.50;1.60;;;;;;;25.80;38.86;100746.38;125215;1309;121295;-68
2023/08/10 10:13:34;;;;;;;;;;;;;;;;;;;;;
2023/08/10 10:17:29;;;;;;;2.40;1.20;;;;;;;25.75;39.69;100748.24;126157;1292;114961;-68
2023/08/10 10:21:29;;;;;;;2.60;1.50;;;;;;;25.60;39.73;100748.48;126918;1289;114944;-68
2023/08/10 10:25:23;;;;;;;2.60;1.30;;;;;;;25.46;40.20;100745.58;126591;1293;114868;-67
2023/08/10 10:29:24;;;;;;;2.80;1.20;;;;;;;25.33;40.00;100748.41;126000;1315;120947;-68
2023/08/10 10:33:08;;;;;;;3.30;1.50;;;;;;;25.22;40.39;100745.94;126098;1301;114796;-69
2023/08/10 10:37:07;;;;;;;5.90;1.50;;;;;;;25.18;40.69;100742.10;125846;1304;114949;-68
2023/08/10 10:41:08;;;;;;;3.80;1.30;;;;;;;25.19;40.83;100740.95;126391;1310;114786;-67
2023/08/10 10:45:07;;;;;;;2.60;1.30;;;;;;;25.33;40.77;100738.36;125773;1303;114975;-67
2023/08/10 10:49:13;;;;;;;;;;;;;;;;;;;;;
2023/08/10 10:53:13;;;;;;;;;;;;;;;;;;;;;
2023/08/10 10:57:33;;;;;;;;;;;;;;;;;;;;;
2023/08/10 11:00:55;;;;;;;3.50;1.30;;;;;;;25.86;39.17;100734.58;128578;1280;122429;-67
2023/08/10 11:04:23;;;;;;;;;;;;;;;;;;;;;
2023/08/10 11:08:28;;;;;;;4.00;1.30;;;;;;;25.90;39.96;100730.83;128422;1288;114947;-66
2023/08/10 11:12:19;;;;;;;2.10;1.10;;;;;;;25.88;39.35;100725.83;122865;1303;115028;-66
2023/08/10 11:16:01;;;;;;;;;;;;;;;;;;;;;
2023/08/10 11:19:54;;;;;;;3.60;1.40;;;;;;;25.67;38.81;100725.98;127844;1277;114985;-66
2023/08/10 11:23:24;;;;;;;3.20;1.50;;;;;;;25.50;39.44;100721.06;126813;1292;121199;-64
2023/08/10 11:27:11;;;;;;;1.90;0.90;;;;;;;25.34;39.78;100719.99;126894;1301;114928;-66
2023/08/10 11:31:14;;;;;;;2.20;1.30;;;;;;;25.09;39.46;100720.73;126249;1299;114809;-68
2023/08/10 11:35:19;;;;;;;3.80;1.70;;;;;;;24.83;39.74;100723.97;125755;1321;115082;-66
2023/08/10 11:39:11;;;;;;;;;;;;;;;;;;;;;
2023/08/10 11:42:49;;;;;;;2.50;1.70;;;;;;;24.17;39.35;100722.62;125374;1321;129767;-67
2023/08/10 11:46:31;;;;;;;;;;;;;;;;;;;;;
2023/08/10 11:50:13;;;;;;;;;;;;;;;;;;;;;
2023/08/10 11:54:09;;;;;;;;;;;;;;;;;;;;;
2023/08/10 11:57:50;;;;;;;4.00;1.40;;;;;;;23.58;40.76;100724.75;127668;1286;114945;-65
2023/08/10 12:01:14;;;;;;;3.60;1.50;;;;;;;23.53;40.78;100721.52;128052;1281;129524;-66
2023/08/10 12:04:43;;;;;;;5.70;1.70;;;;;;;23.47;40.55;100726.02;127962;1276;115307;-67
2023/08/10 12:08:33;;;;;;;;;;;;;;;;;;;;;
2023/08/10 12:12:21;;;;;;;3.40;1.60;;;;;;;23.55;40.81;100719.55;128831;1267;114873;-67
2023/08/10 12:15:50;;;;;;;4.00;1.90;;;;;;;23.66;41.13;100716.82;129355;1261;114843;-67
2023/08/10 12:19:25;;;;;;;2.70;1.30;;;;;;;23.78;41.03;100717.10;129839;1260;127841;-66
2023/08/10 12:23:18;;;;;;;;;;;;;;;;;;;;;
2023/08/10 12:27:08;;;;;;;2.40;1.60;;;;;;;24.11;41.47;100723.52;129008;1271;114992;-67
2023/08/10 12:30:44;;;;;;;;;;;;;;;;;;;;;
2023/08/10 12:34:26;;;;;;;4.70;1.50;;;;;;;24.35;41.20;100720.99;128950;1273;114945;-68
2023/08/10 12:38:23;;;;;;;4.20;1.30;;;;;;;24.34;40.86;100722.51;128277;1297;128175;-67
2023/08/10 12:42:08;;;;;;;;;;;;;;;;;;;;;
2023/08/10 12:46:11;;;;;;;6.70;2.40;;;;;;;24.45;40.68;100717.23;127153;1304;115073;-66
2023/08/10 12:49:59;;;;;;;;;;;;;;;;;;;;;
2023/08/10 12:53:47;;;;;;;2.10;1.20;;;;;;;24.69;40.35;100715.33;125852;1315;115552;-68
2023/08/10 12:57:29;;;;;;;1.60;1.40;;;;;;;24.75;39.56;100714.21;126499;1289;129652;-68
2023/08/10 13:01:32;;;;;;;3.50;1.50;;;;;;;24.76;39.21;100713.19;125924;1297;115173;-67
2023/08/10 13:05:10;;;;;;;;;;;;;;;;;;;;;
2023/08/10 13:08:56;;;;;;;2.70;1.20;;;;;;;25.05;40.34;100709.77;125885;1300;114956;-66
2023/08/10 13:12:28;;;;;;;1.20;1.10;;;;;;;25.16;39.93;100711.22;125592;1305;114903;-67
2023/08/10 13:16:15;;;;;;;2.20;1.20;;;;;;;25.28;39.47;100713.59;125802;1299;121097;-67
2023/08/10 13:19:58;;;;;;;;;;;;;;;;;;;;;
2023/08/10 13:23:56;;;;;;;;;;;;;;;;;;;;;
2023/08/10 13:27:52;;;;;;;2.30;1.50;;;;;;;25.60;38.18;100709.59;126257;1294;114934;-66
2023/08/10 13:31:10;;;;;;;;;;;;;;;;;;;;;
2023/08/10 13:34:55;;;;;;;3.70;1.60;;;;;;;25.69;38.72;100704.41;126298;1297;121066;-65
2023/08/10 13:38:56;;;;;;;3.60;1.30;;;;;;;25.78;38.00;100702.36;126502;1297;115162;-66
2023/08/10 13:42:32;;;;;;;3.40;1.50;;;;;;;25.76;37.48;100698.53;126124;1307;115016;-66
2023/08/10 13:45:57;;;;;;;1.70;1.10;;;;;;;25.59;36.59;100694.15;126288;1299;115718;-65
2023/08/10 13:49:38;;;;;;;3.90;1.60;;;;;;;25.30;37.17;100697.38;126404;1291;114922;-66
2023/08/10 13:53:15;;;;;;;;;;;;;;;;;;;;;
2023/08/10 13:56:47;;;;;;;2.30;1.10;;;;;;;24.89;37.80;100698.67;126676;1309;114901;-67
2023/08/10 14:00:16;;;;;;;2.70;1.40;;;;;;;24.74;37.96;100694.92;126849;1309;114785;-66
2023/08/10 14:03:51;;;;;;;7.00;1.10;;;;;;;24.63;37.97;100694.25;126900;1291;114967;-67
2023/08/10 14:07:27;;;;;;;2.20;1.40;;;;;;;24.43;37.50;100691.49;127202;1286;114959;-66
2023/08/10 14:11:04;;;;;;;;;;;;;;;;;;;;;
2023/08/10 14:14:26;;;;;;;2.90;1.50;;;;;;;24.03;38.47;100696.41;126611;1294;115282;-66
2023/08/10 14:17:52;;;;;;;6.10;1.80;;;;;;;23.94;38.29;100692.24;127015;1283;114867;-66
2023/08/10 14:21:44;;;;;;;1.90;1.20;;;;;;;23.78;37.96;100684.70;127539;1283;115047;-65
2023/08/10 14:25:25;;;;;;;5.70;1.70;;;;;;;23.67;38.91;100689.40;127302;1301;114766;-66
2023/08/10 14:28:55;;;;;;;1.60;1.30;;;;;;;23.57;38.63;100683.95;126911;1289;128180;-67
2023/08/10 14:32:11;;;;;;;;;;;;;;;;;;;;;
2023/08/10 14:36:05;;;;;;;4.80;1.70;;;;;;;23.39;39.38;100686.46;127659;1285;114769;-68
2023/08/10 14:40:05;;;;;;;;;;;;;;;;;;;;;
2023/08/10 14:43:52;;;;;;;1.90;1.30;;;;;;;23.31;39.42;100691.27;126813;1292;116579;-67
2023/08/10 14:47:26;;;;;;;1.20;1.10;;;;;;;23.18;39.92;100692.85;126167;1313;129765;-66
2023/08/10 14:51:16;;;;;;;3.00;1.80;;;;;;;23.10;40.11;100688.37;126190;1301;114978;-66
2023/08/10 14:54:47;;;;;;;2.80;1.40;;;;;;;23.05;40.11;100690.83;126200;1300;114875;-66
2023/08/10 14:58:33;;;;;;;2.60;1.10;;;;;;;22.97;39.31;100686.25;126144;1294;114892;-66
2023/08/10 15:02:02;;;;;;;5.10;1.50;;;;;;;22.86;39.50;100686.94;126239;1294;114995;-65
2023/08/10 15:05:42;;;;;;;;;;;;;;;;;;;;;
2023/08/10 15:09:24;;;;;;;;;;;;;;;;;;;;;
2023/08/10 15:12:41;;;;;;;1.50;1.20;;;;;;;22.77;40.08;100684.73;126025;1292;114927;-66
2023/08/10 15:16:33;;;;;;;4.80;1.80;;;;;;;22.72;40.13;100686.09;125833;1316;115369;-66
2023/08/10 15:20:02;;;;;;;6.50;1.60;;;;;;;22.66;40.34;100684.65;126030;1303;114860;-66
2023/08/10 15:23:42;;;;;;;;;;;;;;;;;;;;;
2023/08/10 15:27:25;;;;;;;3.30;1.20;;;;;;;22.50;40.99;100688.73;126550;1296;115231;-65
2023/08/10 15:31:06;;;;;;;;;;;;;;;;;;;;;
2023/08/10 15:34:46;;;;;;;2.30;1.30;;;;;;;22.51;41.54;100687.02;127700;1301;114982;-65
2023/08/10 15:38:07;;;;;;;6.30;1.60;;;;;;;22.54;41.45;100684.14;127199;1296;114966;-66
2023/08/10 15:41:19;;;;;;;17.40;1.70;;;;;;;22.54;41.24;100688.37;127810;1283;129041;-67
2023/08/10 15:44:39;;;;;;;3.10;1.60;;;;;;;22.53;41.36;100686.00;127529;1278;115275;-66
2023/08/10 15:48:06;;;;;;;;;;;;;;;;;;;;;
2023/08/10 15:51:52;;;;;;;;;;;;;;;;;;;;;
2023/08/10 15:55:16;;;;;;;4.10;2.30;;;;;;;22.47;40.96;100690.48;128188;1277;114853;-66
2023/08/10 15:58:55;;;;;;;;;;;;;;;;;;;;;
2023/08/10 16:02:16;;;;;;;;;;;;;;;;;;;;;
2023/08/10 16:05:39;;;;;;;5.60;1.50;;;;;;;22.44;41.70;100698.02;129799;1263;115175;-66
2023/08/10 16:09:16;;;;;;;5.20;1.30;;;;;;;22.41;41.56;100702.10;129868;1260;114807;-67
2023/08/10 16:12:21;;;;;;;2.50;1.70;;;;;;;22.33;41.69;100702.60;129749;1265;114698;-68
2023/08/10 16:15:37;;;;;;;2.60;2.00;;;;;;;22.27;41.49;100700.66;129808;1262;129618;-66
2023/08/10 16:18:58;;;;;;;2.40;1.50;;;;;;;22.21;41.48;100698.48;129717;1263;114833;-69
2023/08/10 16:22:26;;;;;;;;;;;;;;;;;;;;;
2023/08/10 16:25:40;;;;;;;1.60;1.20;;;;;;;22.07;41.38;100694.51;129864;1263;114746;-67
2023/08/10 16:29:02;;;;;;;1.80;1.30;;;;;;;21.99;41.77;100689.73;129766;1263;115201;-66
2023/08/10 16:32:52;;;;;;;4.30;1.60;;;;;;;21.91;41.95;100692.06;129771;1263;126882;-66
2023/08/10 16:36:38;;;;;;;3.50;1.50;;;;;;;21.80;42.15;100693.41;128739;1276;115218;-67
2023/08/10 16:40:22;;;;;;;;;;;;;;;;;;;;;
2023/08/10 16:43:47;;;;;;;;;;;;;;;;;;;;;
2023/08/10 16:47:23;;;;;;;;;;;;;;;;;;;;;
2023/08/10 16:50:42;;;;;;;2.20;1.20;;;;;;;21.29;42.59;100699.98;128738;1279;128845;-66
2023/08/10 16:54:06;;;;;;;;;;;;;;;;;;;;;
2023/08/10 16:57:36;;;;;;;;;;;;;;;;;;;;;
2023/08/10 17:00:53;;;;;;;4.40;1.70;;;;;;;20.93;42.80;100698.75;128369;1270;115142;-66
2023/08/10 17:04:05;;;;;;;1.60;1.40;;;;;;;20.82;42.95;100699.55;128649;1276;115028;-67
2023/08/10 17:11:36;;;;;;;5.20;2.40;;;;;;;20.58;43.25;100706.63;128441;1271;115275;-65
2023/08/10 17:15:41;;;;;;;4.90;1.90;;;;;;;20.46;43.09;100706.16;129769;1258;114813;-67
2023/08/10 17:19:17;;;;;;;6.80;2.20;;;;;;;20.35;43.53;100707.98;128881;1270;114970;-65
2023/08/10 17:22:57;;;;;;;2.20;1.60;;;;;;;20.28;43.80;100711.70;128864;1273;114774;-67
2023/08/10 17:26:15;;;;;;;4.60;2.40;;;;;;;20.23;44.20;100713.41;128188;1297;128609;-66
2023/08/10 17:30:04;;;;;;;5.80;1.90;;;;;;;20.17;44.40;100716.05;128108;1295;115266;-66
2023/08/10 17:33:39;;;;;;;4.60;1.30;;;;;;;20.13;44.79;100714.73;128154;1297;114933;-66
2023/08/10 17:37:17;;;;;;;;;;;;;;;;;;;;;
2023/08/10 17:40:59;;;;;;;;;;;;;;;;;;;;;
2023/08/10 17:44:48;;;;;;;6.20;1.60;;;;;;;20.01;45.64;100719.17;126525;1286;130527;-67
2023/08/10 17:48:38;;;;;;;;;;;;;;;;;;;;;
2023/08/10 17:52:38;;;;;;;;;;;;;;;;;;;;;
2023/08/10 17:56:14;;;;;;;5.10;2.00;;;;;;;19.84;46.50;100724.55;126540;1300;114937;-66
2023/08/10 18:00:06;;;;;;;16.60;10.30;;;;;;;19.77;46.93;100726.33;126851;1309;115080;-65
2023/08/10 18:03:30;;;;;;;7.60;3.70;;;;;;;19.68;47.56;100726.36;126685;1307;129200;-65
2023/08/10 18:06:52;;;;;;;3.90;2.40;;;;;;;19.58;47.68;100729.86;127111;1287;115827;-65
2023/08/10 18:10:12;;;;;;;8.80;2.60;;;;;;;19.47;48.21;100729.64;127072;1287;114858;-66
2023/08/10 18:13:52;;;;;;;4.70;2.10;;;;;;;19.37;48.74;100735.92;126949;1283;114985;-67
2023/08/10 18:17:19;;;;;;;4.10;1.90;;;;;;;19.21;49.37;100739.87;126708;1289;114936;-66
2023/08/10 18:21:03;;;;;;;3.90;1.70;;;;;;;19.05;49.67;100742.00;126932;1284;128913;-65
2023/08/10 18:24:46;;;;;;;;;;;;;;;;;;;;;
2023/08/10 18:28:21;;;;;;;2.40;1.90;;;;;;;18.66;50.34;100747.31;127222;1289;115227;-65
2023/08/10 18:32:06;;;;;;;4.80;1.60;;;;;;;18.47;50.86;100749.36;127239;1300;114888;-66
2023/08/10 18:36:02;;;;;;;4.30;1.90;;;;;;;18.27;51.21;100756.04;128064;1282;114856;-65
2023/08/10 18:39:35;;;;;;;4.30;2.10;;;;;;;18.07;51.78;100758.44;128508;1286;128794;-65
2023/08/10 18:42:57;;;;;;;8.40;3.50;;;;;;;17.88;52.05;100758.70;128545;1275;115309;-65
2023/08/10 18:46:30;;;;;;;9.10;4.00;;;;;;;17.71;52.43;100766.23;128587;1272;114850;-66
2023/08/10 18:49:45;;;;;;;3.60;2.30;;;;;;;17.54;52.75;100767.45;128569;1275;114907;-67
2023/08/10 18:53:39;;;;;;;;;;;;;;;;;;;;;
2023/08/10 18:57:39;;;;;;;5.80;2.90;;;;;;;17.21;53.56;100767.98;128338;1285;127936;-66
2023/08/10 19:01:39;;;;;;;7.80;4.20;;;;;;;17.03;53.91;100770.09;128019;1276;116115;-65
2023/08/10 19:05:30;;;;;;;3.60;2.70;;;;;;;16.87;54.34;100770.43;128267;1280;114882;-66
2023/08/10 19:09:03;;;;;;;7.70;4.50;;;;;;;16.72;55.06;100774.34;127897;1284;114771;-65
2023/08/10 19:12:13;;;;;;;5.60;3.30;;;;;;;16.58;55.32;100772.24;128066;1279;114996;-65
2023/08/10 19:15:48;;;;;;;;;;;;;;;;;;;;;
2023/08/10 19:19:05;;;;;;;;;;;;;;;;;;;;;
2023/08/10 19:22:18;;;;;;;5.80;3.80;;;;;;;16.20;56.44;100777.97;127944;1279;114992;-65
2023/08/10 19:25:47;;;;;;;13.40;7.20;;;;;;;16.08;56.88;100780.34;127995;1279;114977;-65
2023/08/10 19:29:41;;;;;;;13.30;8.40;;;;;;;15.96;57.24;100779.86;127385;1285;114890;-66
2023/08/10 19:33:24;;;;;;;16.20;9.00;;;;;;;15.82;57.49;100773.70;127609;1299;128210;-67
2023/08/10 19:37:08;;;;;;;;;;;;;;;;;;;;;
2023/08/10 19:40:41;;;;;;;5.10;3.40;;;;;;;15.59;57.64;100777.69;128767;1276;114810;-66
2023/08/10 19:44:11;;;;;;;5.30;3.40;;;;;;;15.50;57.35;100783.45;129324;1267;114876;-66
2023/08/10 19:47:44;;;;;;;4.70;2.60;;;;;;;15.44;57.75;100784.91;129152;1267;115218;-66
2023/08/10 19:51:17;;;;;;;7.50;3.10;;;;;;;15.38;58.07;100789.40;128775;1270;128844;-66
2023/08/10 19:54:46;;;;;;;2.80;2.50;;;;;;;15.32;58.34;100789.42;128820;1293;115392;-66
2023/08/10 19:58:05;;;;;;;8.10;2.70;;;;;;;15.25;58.76;100790.02;128144;1282;115449;-67
2023/08/10 20:01:20;;;;;;;5.20;2.70;;;;;;;15.19;59.11;100788.75;128767;1271;115170;-66
2023/08/10 20:04:43;;;;;;;5.70;3.50;;;;;;;15.14;59.33;100792.13;128820;1276;115006;-67
2023/08/10 20:08:11;;;;;;;5.40;2.60;;;;;;;15.08;59.47;100791.79;129370;1287;128861;-66
2023/08/10 20:11:44;;;;;;;7.90;4.50;;;;;;;15.03;59.72;100797.50;129268;1268;115121;-66
2023/08/10 20:15:41;;;;;;;;;;;;;;;;;;;;;
2023/08/10 20:19:39;;;;;;;8.60;4.10;;;;;;;14.90;60.29;100791.60;129347;1264;114892;-66
2023/08/10 20:23:34;;;;;;;6.50;3.80;;;;;;;14.83;60.65;100795.23;128842;1273;114954;-66
2023/08/10 20:27:06;;;;;;;6.40;3.90;;;;;;;14.76;60.84;100796.91;128478;1271;129251;-66
2023/08/10 20:30:37;;;;;;;7.40;3.40;;;;;;;14.69;61.17;100795.14;129512;1270;115197;-64
2023/08/10 20:34:26;;;;;;;9.40;3.50;;;;;;;14.64;61.51;100799.02;129213;1264;114933;-65
2023/08/10 20:38:10;;;;;;;5.30;2.90;;;;;;;14.61;61.88;100797.74;129092;1272;115332;-65